sensor_id;sensor_type;location;lat;lon;timestamp;pressure;altitude;pressure_sealevel;temperature;humidity
72055;BME280;59936;51.490;5.436;2023-03-31T00:00:32;100249.66;;;10.76;79.19
72055;BME280;59936;51.490;5.436;2023-03-31T00:02:58;100242.13;;;10.80;80.14
72055;BME280;59936;51.490;5.436;2023-03-31T00:05:24;100238.25;;;10.83;77.38
72055;BME280;59936;51.490;5.436;2023-03-31T00:07:54;100227.97;;;10.71;80.56
72055;BME280;59936;51.490;5.436;2023-03-31T00:10:21;100219.81;;;10.65;80.56
72055;BME280;59936;51.490;5.436;2023-03-31T00:12:46;100218.41;;;10.54;79.20
72055;BME280;59936;51.490;5.436;2023-03-31T00:15:12;100205.91;;;10.47;83.35
72055;BME280;59936;51.490;5.436;2023-03-31T00:17:38;100208.09;;;10.43;80.16
72055;BME280;59936;51.490;5.436;2023-03-31T00:20:04;100200.88;;;10.43;85.49
72055;BME280;59936;51.490;5.436;2023-03-31T00:22:30;100198.56;;;10.40;82.30
72055;BME280;59936;51.490;5.436;2023-03-31T00:24:56;100190.53;;;10.40;82.13
72055;BME280;59936;51.490;5.436;2023-03-31T00:27:22;100175.31;;;10.41;86.45
72055;BME280;59936;51.490;5.436;2023-03-31T00:29:48;100177.03;;;10.34;83.38
72055;BME280;59936;51.490;5.436;2023-03-31T00:32:13;100167.97;;;10.35;87.33
72055;BME280;59936;51.490;5.436;2023-03-31T00:34:39;100172.41;;;10.28;81.18
72055;BME280;59936;51.490;5.436;2023-03-31T00:37:05;100167.22;;;10.26;81.74
72055;BME280;59936;51.490;5.436;2023-03-31T00:39:31;100150.66;;;10.31;78.95
72055;BME280;59936;51.490;5.436;2023-03-31T00:41:57;100147.22;;;10.37;87.10
72055;BME280;59936;51.490;5.436;2023-03-31T00:44:24;100145.28;;;10.31;83.13
72055;BME280;59936;51.490;5.436;2023-03-31T00:47:12;100134.59;;;10.31;81.08
72055;BME280;59936;51.490;5.436;2023-03-31T00:49:41;100132.53;;;10.33;80.63
72055;BME280;59936;51.490;5.436;2023-03-31T00:52:15;100129.50;;;10.36;84.04
72055;BME280;59936;51.490;5.436;2023-03-31T00:54:43;100127.84;;;10.35;83.62
72055;BME280;59936;51.490;5.436;2023-03-31T00:57:11;100126.19;;;10.34;82.81
72055;BME280;59936;51.490;5.436;2023-03-31T00:59:43;100121.47;;;10.36;82.74
72055;BME280;59936;51.490;5.436;2023-03-31T01:02:12;100115.13;;;10.37;82.04
72055;BME280;59936;51.490;5.436;2023-03-31T01:04:43;100112.28;;;10.38;82.77
72055;BME280;59936;51.490;5.436;2023-03-31T01:07:29;100122.25;;;10.45;80.98
72055;BME280;59936;51.490;5.436;2023-03-31T01:09:59;100110.66;;;10.52;83.66
72055;BME280;59936;51.490;5.436;2023-03-31T01:12:26;100096.28;;;10.53;81.37
72055;BME280;59936;51.490;5.436;2023-03-31T01:14:52;100092.19;;;10.57;80.88
72055;BME280;59936;51.490;5.436;2023-03-31T01:17:20;100094.69;;;10.59;80.73
72055;BME280;59936;51.490;5.436;2023-03-31T01:25:48;100076.25;;;10.64;81.37
72055;BME280;59936;51.490;5.436;2023-03-31T01:48:06;100038.28;;;10.60;82.14
72055;BME280;59936;51.490;5.436;2023-03-31T01:53:32;100026.03;;;10.66;81.98
72055;BME280;59936;51.490;5.436;2023-03-31T01:56:14;100024.53;;;10.63;82.64
72055;BME280;59936;51.490;5.436;2023-03-31T01:59:09;100002.88;;;10.73;83.68
72055;BME280;59936;51.490;5.436;2023-03-31T02:02:07;100008.13;;;10.66;83.49
72055;BME280;59936;51.490;5.436;2023-03-31T02:05:04;99994.09;;;10.64;81.90
72055;BME280;59936;51.490;5.436;2023-03-31T02:07:39;99994.09;;;10.64;81.90
72055;BME280;59936;51.490;5.436;2023-03-31T02:10:10;99985.75;;;10.59;79.67
72055;BME280;59936;51.490;5.436;2023-03-31T02:12:38;99964.34;;;10.59;83.09
72055;BME280;59936;51.490;5.436;2023-03-31T02:15:09;99970.25;;;10.55;83.21
72055;BME280;59936;51.490;5.436;2023-03-31T02:17:37;99944.53;;;10.54;83.45
72055;BME280;59936;51.490;5.436;2023-03-31T02:20:06;99940.38;;;10.51;82.83
72055;BME280;59936;51.490;5.436;2023-03-31T02:22:37;99933.53;;;10.49;82.63
72055;BME280;59936;51.490;5.436;2023-03-31T02:25:05;99922.00;;;10.48;82.09
72055;BME280;59936;51.490;5.436;2023-03-31T02:27:41;99907.78;;;10.48;82.97
72055;BME280;59936;51.490;5.436;2023-03-31T02:30:08;99902.97;;;10.43;81.51
72055;BME280;59936;51.490;5.436;2023-03-31T02:32:40;99897.63;;;10.43;83.03
72055;BME280;59936;51.490;5.436;2023-03-31T02:35:09;99886.47;;;10.39;82.87
72055;BME280;59936;51.490;5.436;2023-03-31T02:37:37;99887.94;;;10.42;82.06
72055;BME280;59936;51.490;5.436;2023-03-31T02:40:22;99881.56;;;10.43;83.24
72055;BME280;59936;51.490;5.436;2023-03-31T02:42:48;99858.50;;;10.42;82.11
72055;BME280;59936;51.490;5.436;2023-03-31T02:51:00;99854.53;;;10.38;82.67
72055;BME280;59936;51.490;5.436;2023-03-31T02:53:51;99837.47;;;10.39;83.28
72055;BME280;59936;51.490;5.436;2023-03-31T02:59:27;99805.34;;;10.39;83.79
72055;BME280;59936;51.490;5.436;2023-03-31T03:05:31;99781.53;;;10.44;87.95
72055;BME280;59936;51.490;5.436;2023-03-31T03:16:21;99769.72;;;10.38;82.91
72055;BME280;59936;51.490;5.436;2023-03-31T03:19:00;99767.50;;;10.42;85.98
72055;BME280;59936;51.490;5.436;2023-03-31T03:21:27;99765.84;;;10.41;82.27
72055;BME280;59936;51.490;5.436;2023-03-31T03:23:54;99761.97;;;10.43;83.91
72055;BME280;59936;51.490;5.436;2023-03-31T03:26:20;99765.66;;;10.42;83.36
72055;BME280;59936;51.490;5.436;2023-03-31T03:28:46;99753.09;;;10.43;84.63
72055;BME280;59936;51.490;5.436;2023-03-31T03:31:12;99760.50;;;10.41;87.40
72055;BME280;59936;51.490;5.436;2023-03-31T03:33:38;99757.00;;;10.40;85.47
72055;BME280;59936;51.490;5.436;2023-03-31T03:36:04;99760.31;;;10.42;86.87
72055;BME280;59936;51.490;5.436;2023-03-31T03:38:30;99752.94;;;10.45;82.13
72055;BME280;59936;51.490;5.436;2023-03-31T03:40:55;99745.72;;;10.45;81.64
72055;BME280;59936;51.490;5.436;2023-03-31T03:43:21;99743.25;;;10.43;85.96
72055;BME280;59936;51.490;5.436;2023-03-31T03:45:48;99725.72;;;10.41;85.68
72055;BME280;59936;51.490;5.436;2023-03-31T03:48:13;99716.16;;;10.32;84.83
72055;BME280;59936;51.490;5.436;2023-03-31T03:50:39;99716.16;;;10.32;84.83
72055;BME280;59936;51.490;5.436;2023-03-31T03:53:06;99701.50;;;10.28;87.87
72055;BME280;59936;51.490;5.436;2023-03-31T03:55:31;99705.94;;;10.21;85.81
72055;BME280;59936;51.490;5.436;2023-03-31T03:57:57;99686.56;;;10.19;82.98
72055;BME280;59936;51.490;5.436;2023-03-31T04:00:23;99690.88;;;10.20;87.10
72055;BME280;59936;51.490;5.436;2023-03-31T04:02:49;99679.91;;;10.15;86.82
72055;BME280;59936;51.490;5.436;2023-03-31T04:05:14;99674.19;;;10.18;89.25
72055;BME280;59936;51.490;5.436;2023-03-31T04:07:40;99663.41;;;10.11;88.13
72055;BME280;59936;51.490;5.436;2023-03-31T04:10:07;99661.56;;;10.12;89.04
72055;BME280;59936;51.490;5.436;2023-03-31T04:12:34;99652.47;;;10.06;86.42
72055;BME280;59936;51.490;5.436;2023-03-31T04:15:00;99648.59;;;10.08;86.80
72055;BME280;59936;51.490;5.436;2023-03-31T04:17:25;99640.75;;;10.07;84.42
72055;BME280;59936;51.490;5.436;2023-03-31T04:19:51;99639.56;;;10.10;87.84
72055;BME280;59936;51.490;5.436;2023-03-31T04:22:17;99627.59;;;10.05;83.76
72055;BME280;59936;51.490;5.436;2023-03-31T04:24:43;99622.88;;;10.07;86.32
72055;BME280;59936;51.490;5.436;2023-03-31T04:27:08;99615.69;;;10.08;86.68
72055;BME280;59936;51.490;5.436;2023-03-31T04:29:34;99598.53;;;10.02;85.53
72055;BME280;59936;51.490;5.436;2023-03-31T04:32:00;99604.72;;;10.03;84.63
72055;BME280;59936;51.490;5.436;2023-03-31T04:34:26;99602.69;;;10.05;87.70
72055;BME280;59936;51.490;5.436;2023-03-31T04:36:52;99592.34;;;10.02;86.94
72055;BME280;59936;51.490;5.436;2023-03-31T04:39:18;99580.84;;;10.01;87.59
72055;BME280;59936;51.490;5.436;2023-03-31T04:41:44;99571.16;;;10.00;88.73
72055;BME280;59936;51.490;5.436;2023-03-31T04:44:09;99568.84;;;9.97;88.00
72055;BME280;59936;51.490;5.436;2023-03-31T04:46:35;99553.06;;;10.02;89.96
72055;BME280;59936;51.490;5.436;2023-03-31T04:49:01;99553.06;;;10.02;89.96
72055;BME280;59936;51.490;5.436;2023-03-31T04:51:28;99549.50;;;9.95;87.57
72055;BME280;59936;51.490;5.436;2023-03-31T04:53:54;99543.78;;;9.98;87.97
72055;BME280;59936;51.490;5.436;2023-03-31T04:56:19;99541.09;;;9.98;86.64
72055;BME280;59936;51.490;5.436;2023-03-31T04:58:45;99543.19;;;10.03;87.39
72055;BME280;59936;51.490;5.436;2023-03-31T05:01:11;99543.19;;;10.03;87.39
72055;BME280;59936;51.490;5.436;2023-03-31T05:03:37;99534.34;;;10.02;88.07
72055;BME280;59936;51.490;5.436;2023-03-31T05:06:03;99536.75;;;9.97;86.87
72055;BME280;59936;51.490;5.436;2023-03-31T05:08:29;99536.75;;;9.97;86.87
72055;BME280;59936;51.490;5.436;2023-03-31T05:10:54;99527.97;;;10.03;89.11
72055;BME280;59936;51.490;5.436;2023-03-31T05:13:20;99519.50;;;10.00;86.88
72055;BME280;59936;51.490;5.436;2023-03-31T05:15:46;99512.50;;;9.99;87.15
72055;BME280;59936;51.490;5.436;2023-03-31T05:18:12;99511.31;;;10.01;86.65
72055;BME280;59936;51.490;5.436;2023-03-31T05:20:37;99503.53;;;10.06;85.23
72055;BME280;59936;51.490;5.436;2023-03-31T05:23:03;99490.16;;;10.06;83.29
72055;BME280;59936;51.490;5.436;2023-03-31T05:25:29;99486.84;;;10.04;86.72
72055;BME280;59936;51.490;5.436;2023-03-31T05:27:55;99487.41;;;10.00;83.84
72055;BME280;59936;51.490;5.436;2023-03-31T05:30:20;99481.25;;;9.99;87.69
72055;BME280;59936;51.490;5.436;2023-03-31T05:32:46;99486.34;;;9.94;85.67
72055;BME280;59936;51.490;5.436;2023-03-31T05:35:12;99475.84;;;9.93;86.31
72055;BME280;59936;51.490;5.436;2023-03-31T05:37:37;99469.47;;;9.94;84.22
72055;BME280;59936;51.490;5.436;2023-03-31T05:40:04;99466.03;;;10.00;87.54
72055;BME280;59936;51.490;5.436;2023-03-31T05:42:30;99463.53;;;9.98;83.43
72055;BME280;59936;51.490;5.436;2023-03-31T05:44:56;99467.03;;;9.99;84.56
72055;BME280;59936;51.490;5.436;2023-03-31T05:47:21;99464.56;;;9.97;83.13
72055;BME280;59936;51.490;5.436;2023-03-31T05:49:47;99472.84;;;10.02;85.97
72055;BME280;59936;51.490;5.436;2023-03-31T05:52:13;99466.22;;;9.98;84.56
72055;BME280;59936;51.490;5.436;2023-03-31T05:54:39;99460.69;;;10.00;84.19
72055;BME280;59936;51.490;5.436;2023-03-31T05:57:05;99461.25;;;9.95;85.82
72055;BME280;59936;51.490;5.436;2023-03-31T05:59:31;99456.94;;;9.94;85.16
72055;BME280;59936;51.490;5.436;2023-03-31T06:01:56;99451.97;;;9.91;86.14
72055;BME280;59936;51.490;5.436;2023-03-31T06:04:22;99446.81;;;9.90;84.60
72055;BME280;59936;51.490;5.436;2023-03-31T06:06:48;99439.81;;;9.89;87.74
72055;BME280;59936;51.490;5.436;2023-03-31T06:09:14;99441.22;;;9.85;85.52
72055;BME280;59936;51.490;5.436;2023-03-31T06:11:39;99424.34;;;9.84;86.13
72055;BME280;59936;51.490;5.436;2023-03-31T06:14:05;99412.84;;;9.84;84.28
72055;BME280;59936;51.490;5.436;2023-03-31T06:16:31;99406.91;;;9.88;87.59
72055;BME280;59936;51.490;5.436;2023-03-31T06:18:56;99419.47;;;9.88;87.07
72055;BME280;59936;51.490;5.436;2023-03-31T06:21:22;99416.38;;;9.91;88.08
72055;BME280;59936;51.490;5.436;2023-03-31T06:23:48;99406.09;;;9.88;84.69
72055;BME280;59936;51.490;5.436;2023-03-31T06:26:16;99403.63;;;9.93;89.24
72055;BME280;59936;51.490;5.436;2023-03-31T06:28:43;99406.09;;;9.88;85.99
72055;BME280;59936;51.490;5.436;2023-03-31T06:31:12;99392.31;;;9.91;85.53
72055;BME280;59936;51.490;5.436;2023-03-31T06:33:39;99393.56;;;9.95;84.05
72055;BME280;59936;51.490;5.436;2023-03-31T06:36:05;99382.50;;;9.98;85.87
72055;BME280;59936;51.490;5.436;2023-03-31T06:38:34;99385.38;;;9.96;85.10
72055;BME280;59936;51.490;5.436;2023-03-31T06:41:00;99379.81;;;9.98;84.30
72055;BME280;59936;51.490;5.436;2023-03-31T06:43:26;99387.47;;;10.01;83.03
72055;BME280;59936;51.490;5.436;2023-03-31T06:45:53;99384.59;;;10.02;86.67
72055;BME280;59936;51.490;5.436;2023-03-31T06:48:20;99383.75;;;10.02;85.42
72055;BME280;59936;51.490;5.436;2023-03-31T06:50:46;99392.69;;;10.16;86.14
72055;BME280;59936;51.490;5.436;2023-03-31T06:53:12;99392.69;;;10.16;86.14
72055;BME280;59936;51.490;5.436;2023-03-31T06:55:38;99381.78;;;10.11;85.56
72055;BME280;59936;51.490;5.436;2023-03-31T06:58:04;99385.06;;;10.13;84.06
72055;BME280;59936;51.490;5.436;2023-03-31T07:00:31;99383.22;;;10.13;86.03
72055;BME280;59936;51.490;5.436;2023-03-31T07:02:57;99376.00;;;10.14;84.07
72055;BME280;59936;51.490;5.436;2023-03-31T07:05:23;99386.97;;;10.19;84.52
72055;BME280;59936;51.490;5.436;2023-03-31T07:07:49;99376.06;;;10.20;84.75
72055;BME280;59936;51.490;5.436;2023-03-31T07:10:15;99379.38;;;10.22;84.30
72055;BME280;59936;51.490;5.436;2023-03-31T07:12:41;99379.56;;;10.21;85.48
72055;BME280;59936;51.490;5.436;2023-03-31T07:15:07;99387.16;;;10.17;85.06
72055;BME280;59936;51.490;5.436;2023-03-31T07:17:33;99375.44;;;10.18;85.09
72055;BME280;59936;51.490;5.436;2023-03-31T07:19:59;99364.72;;;10.18;86.91
72055;BME280;59936;51.490;5.436;2023-03-31T07:22:24;99368.03;;;10.20;86.04
72055;BME280;59936;51.490;5.436;2023-03-31T07:24:50;99357.38;;;10.27;88.50
72055;BME280;59936;51.490;5.436;2023-03-31T07:27:16;99359.25;;;10.26;85.48
72055;BME280;59936;51.490;5.436;2023-03-31T07:29:41;99356.75;;;10.25;88.27
72055;BME280;59936;51.490;5.436;2023-03-31T07:32:07;99349.06;;;10.15;87.61
72055;BME280;59936;51.490;5.436;2023-03-31T07:34:33;99355.63;;;10.06;88.01
72055;BME280;59936;51.490;5.436;2023-03-31T07:36:59;99359.69;;;10.02;87.31
72055;BME280;59936;51.490;5.436;2023-03-31T07:39:25;99360.34;;;10.04;88.87
72055;BME280;59936;51.490;5.436;2023-03-31T07:41:51;99353.53;;;10.01;86.85
72055;BME280;59936;51.490;5.436;2023-03-31T07:44:16;99360.16;;;10.12;88.72
72055;BME280;59936;51.490;5.436;2023-03-31T07:46:42;99342.31;;;10.19;86.22
72055;BME280;59936;51.490;5.436;2023-03-31T07:49:08;99348.78;;;10.38;87.84
72055;BME280;59936;51.490;5.436;2023-03-31T07:51:34;99349.91;;;10.50;85.61
72055;BME280;59936;51.490;5.436;2023-03-31T07:53:59;99348.72;;;10.66;87.63
72055;BME280;59936;51.490;5.436;2023-03-31T07:56:25;99344.63;;;10.70;84.31
72055;BME280;59936;51.490;5.436;2023-03-31T07:58:51;99344.66;;;10.83;87.83
72055;BME280;59936;51.490;5.436;2023-03-31T08:01:19;99338.31;;;10.91;85.52
72055;BME280;59936;51.490;5.436;2023-03-31T08:03:46;99333.00;;;11.04;84.51
72055;BME280;59936;51.490;5.436;2023-03-31T08:06:20;99336.97;;;11.15;83.90
72055;BME280;59936;51.490;5.436;2023-03-31T08:08:47;99323.97;;;11.25;83.19
72055;BME280;59936;51.490;5.436;2023-03-31T08:11:13;99334.91;;;11.43;82.62
72055;BME280;59936;51.490;5.436;2023-03-31T08:13:39;99329.97;;;11.53;82.78
72055;BME280;59936;51.490;5.436;2023-03-31T08:16:05;99323.78;;;11.53;84.65
72055;BME280;59936;51.490;5.436;2023-03-31T08:18:31;99323.78;;;11.53;83.61
72055;BME280;59936;51.490;5.436;2023-03-31T08:20:56;99305.41;;;11.63;85.70
72055;BME280;59936;51.490;5.436;2023-03-31T08:23:22;99311.41;;;11.71;84.16
72055;BME280;59936;51.490;5.436;2023-03-31T08:25:48;99314.91;;;11.78;85.84
72055;BME280;59936;51.490;5.436;2023-03-31T08:28:13;99314.88;;;11.85;82.96
72055;BME280;59936;51.490;5.436;2023-03-31T08:30:40;99314.06;;;11.91;85.67
72055;BME280;59936;51.490;5.436;2023-03-31T08:33:06;99314.06;;;11.98;82.52
72055;BME280;59936;51.490;5.436;2023-03-31T08:35:32;99314.06;;;11.98;82.52
72055;BME280;59936;51.490;5.436;2023-03-31T08:37:58;99314.25;;;12.03;82.30
72055;BME280;59936;51.490;5.436;2023-03-31T08:40:24;99302.50;;;12.04;81.04
72055;BME280;59936;51.490;5.436;2023-03-31T08:43:03;99304.38;;;11.97;84.88
72055;BME280;59936;51.490;5.436;2023-03-31T08:45:36;99316.50;;;12.06;81.66
72055;BME280;59936;51.490;5.436;2023-03-31T08:50:34;99310.09;;;12.07;81.29
72055;BME280;59936;51.490;5.436;2023-03-31T08:53:24;99310.09;;;12.07;81.29
72055;BME280;59936;51.490;5.436;2023-03-31T08:55:55;99312.16;;;12.11;82.34
72055;BME280;59936;51.490;5.436;2023-03-31T08:58:39;99302.44;;;12.24;81.81
72055;BME280;59936;51.490;5.436;2023-03-31T09:06:38;99301.75;;;12.41;80.06
72055;BME280;59936;51.490;5.436;2023-03-31T09:09:09;99307.28;;;12.53;80.03
72055;BME280;59936;51.490;5.436;2023-03-31T09:12:18;99305.41;;;12.54;79.76
72055;BME280;59936;51.490;5.436;2023-03-31T09:14:41;99299.38;;;12.71;79.39
72055;BME280;59936;51.490;5.436;2023-03-31T09:17:26;99305.00;;;13.01;78.98
72055;BME280;59936;51.490;5.436;2023-03-31T09:20:10;99297.13;;;13.06;78.45
72055;BME280;59936;51.490;5.436;2023-03-31T09:22:39;99291.34;;;13.03;78.27
72055;BME280;59936;51.490;5.436;2023-03-31T09:25:11;99290.53;;;13.02;77.97
72055;BME280;59936;51.490;5.436;2023-03-31T09:27:41;99283.38;;;12.90;77.51
72055;BME280;59936;51.490;5.436;2023-03-31T09:30:38;99277.47;;;12.74;77.12
72055;BME280;59936;51.490;5.436;2023-03-31T09:33:25;99280.00;;;12.69;76.14
72055;BME280;59936;51.490;5.436;2023-03-31T09:35:51;99275.03;;;12.66;76.09
72055;BME280;59936;51.490;5.436;2023-03-31T09:38:17;99274.72;;;12.88;76.98
72055;BME280;59936;51.490;5.436;2023-03-31T09:40:42;99269.03;;;13.02;75.71
72055;BME280;59936;51.490;5.436;2023-03-31T09:43:21;99264.81;;;13.38;75.82
72055;BME280;59936;51.490;5.436;2023-03-31T09:45:48;99271.69;;;13.59;73.97
72055;BME280;59936;51.490;5.436;2023-03-31T09:48:15;99262.47;;;13.91;74.37
72055;BME280;59936;51.490;5.436;2023-03-31T09:50:49;99258.84;;;14.04;72.17
72055;BME280;59936;51.490;5.436;2023-03-31T09:54:09;99255.56;;;14.20;73.77
72055;BME280;59936;51.490;5.436;2023-03-31T09:56:09;99255.56;;;14.02;72.56
72055;BME280;59936;51.490;5.436;2023-03-31T09:58:44;99259.56;;;13.74;73.91
72055;BME280;59936;51.490;5.436;2023-03-31T10:01:14;99256.91;;;13.68;72.72
72055;BME280;59936;51.490;5.436;2023-03-31T10:03:50;99231.81;;;13.74;74.11
72055;BME280;59936;51.490;5.436;2023-03-31T10:06:17;99238.13;;;14.04;73.06
72055;BME280;59936;51.490;5.436;2023-03-31T10:08:50;99248.16;;;14.15;73.78
72055;BME280;59936;51.490;5.436;2023-03-31T10:11:19;99244.56;;;14.03;73.28
72055;BME280;59936;51.490;5.436;2023-03-31T10:16:34;99248.50;;;13.58;72.89
72055;BME280;59936;51.490;5.436;2023-03-31T10:19:21;99243.06;;;13.46;73.97
72055;BME280;59936;51.490;5.436;2023-03-31T10:21:54;99238.31;;;13.41;71.95
72055;BME280;59936;51.490;5.436;2023-03-31T10:24:20;99247.38;;;13.47;74.30
72055;BME280;59936;51.490;5.436;2023-03-31T10:26:47;99239.28;;;13.54;74.20
72055;BME280;59936;51.490;5.436;2023-03-31T10:29:20;99241.44;;;13.63;72.56
72055;BME280;59936;51.490;5.436;2023-03-31T10:31:47;99232.94;;;13.84;72.33
72055;BME280;59936;51.490;5.436;2023-03-31T10:34:14;99229.13;;;13.74;72.43
72055;BME280;59936;51.490;5.436;2023-03-31T10:36:45;99224.38;;;13.76;72.39
72055;BME280;59936;51.490;5.436;2023-03-31T10:39:14;99220.84;;;13.57;73.02
72055;BME280;59936;51.490;5.436;2023-03-31T10:41:40;99231.47;;;13.45;73.28
72055;BME280;59936;51.490;5.436;2023-03-31T10:44:10;99221.88;;;13.31;73.71
72055;BME280;59936;51.490;5.436;2023-03-31T10:46:52;99232.69;;;13.25;72.36
72055;BME280;59936;51.490;5.436;2023-03-31T10:49:23;99225.50;;;13.43;72.91
72055;BME280;59936;51.490;5.436;2023-03-31T10:51:54;99216.19;;;13.64;71.75
72055;BME280;59936;51.490;5.436;2023-03-31T10:54:21;99214.34;;;14.01;72.18
72055;BME280;59936;51.490;5.436;2023-03-31T10:56:48;99214.28;;;14.26;71.93
72055;BME280;59936;51.490;5.436;2023-03-31T11:12:55;99198.91;;;13.35;71.04
72055;BME280;59936;51.490;5.436;2023-03-31T11:15:11;99202.13;;;13.19;73.20
72055;BME280;59936;51.490;5.436;2023-03-31T11:20:17;99206.16;;;13.10;74.13
72055;BME280;59936;51.490;5.436;2023-03-31T11:25:22;99189.34;;;13.39;72.16
72055;BME280;59936;51.490;5.436;2023-03-31T11:27:54;99189.94;;;13.60;71.22
72055;BME280;59936;51.490;5.436;2023-03-31T11:30:27;99188.41;;;13.52;70.69
72055;BME280;59936;51.490;5.436;2023-03-31T11:38:10;99173.47;;;14.11;67.68
72055;BME280;59936;51.490;5.436;2023-03-31T11:41:02;99166.56;;;14.33;68.08
72055;BME280;59936;51.490;5.436;2023-03-31T11:43:28;99156.44;;;14.17;66.85
72055;BME280;59936;51.490;5.436;2023-03-31T11:46:00;99166.88;;;14.07;66.80
72055;BME280;59936;51.490;5.436;2023-03-31T11:51:19;99149.09;;;14.06;68.08
72055;BME280;59936;51.490;5.436;2023-03-31T11:53:46;99176.84;;;14.06;65.88
72055;BME280;59936;51.490;5.436;2023-03-31T11:56:13;99154.44;;;14.54;65.44
72055;BME280;59936;51.490;5.436;2023-03-31T11:58:47;99154.44;;;14.54;65.44
72055;BME280;59936;51.490;5.436;2023-03-31T12:01:17;99142.53;;;14.62;61.64
72055;BME280;59936;51.490;5.436;2023-03-31T12:04:01;99157.66;;;14.74;61.43
72055;BME280;59936;51.490;5.436;2023-03-31T12:06:33;99143.97;;;14.87;61.42
72055;BME280;59936;51.490;5.436;2023-03-31T12:09:09;99136.13;;;15.09;64.54
72055;BME280;59936;51.490;5.436;2023-03-31T12:11:42;99138.16;;;15.02;61.52
72055;BME280;59936;51.490;5.436;2023-03-31T12:16:45;99131.44;;;14.81;60.85
72055;BME280;59936;51.490;5.436;2023-03-31T12:19:14;99143.00;;;14.70;63.36
72055;BME280;59936;51.490;5.436;2023-03-31T12:21:43;99142.81;;;14.83;61.91
72055;BME280;59936;51.490;5.436;2023-03-31T12:24:12;99121.03;;;14.85;63.45
72055;BME280;59936;51.490;5.436;2023-03-31T12:29:11;99121.97;;;15.02;60.78
72055;BME280;59936;51.490;5.436;2023-03-31T12:31:41;99113.34;;;15.24;60.01
72055;BME280;59936;51.490;5.436;2023-03-31T12:34:11;99103.44;;;15.17;63.17
72055;BME280;59936;51.490;5.436;2023-03-31T12:47:06;99099.38;;;15.38;63.37
72055;BME280;59936;51.490;5.436;2023-03-31T12:49:40;99099.00;;;15.35;62.77
72055;BME280;59936;51.490;5.436;2023-03-31T12:52:12;99083.63;;;14.88;61.83
72055;BME280;59936;51.490;5.436;2023-03-31T12:57:12;99079.03;;;14.66;64.56
72055;BME280;59936;51.490;5.436;2023-03-31T12:59:39;99068.25;;;14.42;64.73
72055;BME280;59936;51.490;5.436;2023-03-31T13:04:34;99068.88;;;14.14;64.60
72055;BME280;59936;51.490;5.436;2023-03-31T13:07:00;99064.53;;;14.13;66.40
72055;BME280;59936;51.490;5.436;2023-03-31T13:11:57;99074.16;;;13.73;67.87
72055;BME280;59936;51.490;5.436;2023-03-31T13:14:23;99083.47;;;13.89;66.19
72055;BME280;59936;51.490;5.436;2023-03-31T13:16:50;99077.47;;;14.35;66.61
72055;BME280;59936;51.490;5.436;2023-03-31T13:21:54;99088.91;;;14.18;66.13
72055;BME280;59936;51.490;5.436;2023-03-31T13:24:24;99076.28;;;14.19;67.68
72055;BME280;59936;51.490;5.436;2023-03-31T13:26:50;99088.75;;;14.13;66.85
72055;BME280;59936;51.490;5.436;2023-03-31T13:34:30;99066.44;;;14.25;65.66
72055;BME280;59936;51.490;5.436;2023-03-31T13:42:21;99078.97;;;14.01;67.81
72055;BME280;59936;51.490;5.436;2023-03-31T13:45:02;99080.56;;;13.90;68.08
72055;BME280;59936;51.490;5.436;2023-03-31T13:53:06;99073.28;;;13.61;69.67
72055;BME280;59936;51.490;5.436;2023-03-31T14:05:44;99067.44;;;12.91;72.46
72055;BME280;59936;51.490;5.436;2023-03-31T14:10:49;99076.16;;;12.61;73.92
72055;BME280;59936;51.490;5.436;2023-03-31T14:13:16;99063.56;;;12.62;74.86
72055;BME280;59936;51.490;5.436;2023-03-31T14:15:44;99068.66;;;12.70;74.15
72055;BME280;59936;51.490;5.436;2023-03-31T14:18:14;99063.97;;;12.84;73.52
72055;BME280;59936;51.490;5.436;2023-03-31T14:20:42;99068.94;;;13.05;72.94
72055;BME280;59936;51.490;5.436;2023-03-31T14:28:24;99054.94;;;12.78;74.50
72055;BME280;59936;51.490;5.436;2023-03-31T14:31:06;99044.16;;;12.60;75.21
72055;BME280;59936;51.490;5.436;2023-03-31T14:36:33;99049.69;;;12.65;75.28
72055;BME280;59936;51.490;5.436;2023-03-31T14:39:01;99050.38;;;12.78;74.29
72055;BME280;59936;51.490;5.436;2023-03-31T14:41:27;99044.53;;;12.88;73.88
72055;BME280;59936;51.490;5.436;2023-03-31T14:43:53;99043.84;;;12.93;72.29
72055;BME280;59936;51.490;5.436;2023-03-31T14:46:20;99036.34;;;12.76;72.83
72055;BME280;59936;51.490;5.436;2023-03-31T14:48:46;99038.66;;;12.73;72.82
72055;BME280;59936;51.490;5.436;2023-03-31T14:51:16;99031.63;;;12.72;72.21
72055;BME280;59936;51.490;5.436;2023-03-31T14:53:42;99031.06;;;12.70;71.38
72055;BME280;59936;51.490;5.436;2023-03-31T14:56:08;99027.59;;;12.63;70.94
72055;BME280;59936;51.490;5.436;2023-03-31T14:58:40;99030.34;;;12.56;70.01
72055;BME280;59936;51.490;5.436;2023-03-31T15:01:07;99022.56;;;12.48;69.54
72055;BME280;59936;51.490;5.436;2023-03-31T15:03:34;99033.66;;;12.52;70.01
72055;BME280;59936;51.490;5.436;2023-03-31T15:06:01;99033.13;;;12.43;69.66
72055;BME280;59936;51.490;5.436;2023-03-31T15:08:27;99029.84;;;12.41;70.82
72055;BME280;59936;51.490;5.436;2023-03-31T15:10:57;99032.28;;;12.42;70.56
72055;BME280;59936;51.490;5.436;2023-03-31T15:13:32;99032.50;;;12.41;70.86
72055;BME280;59936;51.490;5.436;2023-03-31T15:15:58;99042.66;;;12.39;71.13
72055;BME280;59936;51.490;5.436;2023-03-31T15:18:25;99042.59;;;12.45;71.28
72055;BME280;59936;51.490;5.436;2023-03-31T15:20:51;99037.44;;;12.44;71.82
72055;BME280;59936;51.490;5.436;2023-03-31T15:23:18;99030.97;;;12.52;71.64
72055;BME280;59936;51.490;5.436;2023-03-31T15:25:44;99042.66;;;12.39;71.89
72055;BME280;59936;51.490;5.436;2023-03-31T15:28:10;99043.34;;;12.28;72.25
72055;BME280;59936;51.490;5.436;2023-03-31T15:30:37;99032.88;;;12.20;72.87
72055;BME280;59936;51.490;5.436;2023-03-31T15:33:05;99033.13;;;12.11;73.01
72055;BME280;59936;51.490;5.436;2023-03-31T15:35:31;99036.34;;;11.95;73.75
72055;BME280;59936;51.490;5.436;2023-03-31T15:37:58;99028.53;;;11.87;75.37